createdAt,value
2023-05-25T00:01:44.282Z,14.27
2023-05-25T00:04:17.198Z,14.18
2023-05-25T00:06:45.613Z,13.70
2023-05-25T00:09:13.149Z,14.90
2023-05-25T00:11:40.488Z,15.60
2023-05-25T00:14:08.611Z,17.02
2023-05-25T00:16:37.800Z,15.68
2023-05-25T00:19:10.880Z,10.63
2023-05-25T00:21:38.441Z,10.95
2023-05-25T00:24:06.610Z,10.93
2023-05-25T00:26:37.422Z,12.77
2023-05-25T00:29:05.108Z,16.50
2023-05-25T00:31:33.641Z,14.48
2023-05-25T00:34:01.238Z,14.68
2023-05-25T00:36:28.626Z,11.75
2023-05-25T00:38:56.238Z,13.40
2023-05-25T00:41:25.169Z,11.05
2023-05-25T00:43:52.544Z,12.57
2023-05-25T00:46:20.379Z,15.40
2023-05-25T00:48:47.742Z,12.90
2023-05-25T00:51:16.236Z,18.08
2023-05-25T00:53:43.821Z,15.93
2023-05-25T00:56:18.268Z,19.88
2023-05-25T00:58:49.989Z,19.30
2023-05-25T01:01:20.434Z,15.02
2023-05-25T01:03:54.400Z,15.10
2023-05-25T01:06:23.319Z,18.13
2023-05-25T01:09:00.436Z,13.65
2023-05-25T01:11:33.429Z,22.13
2023-05-25T01:14:01.701Z,16.67
2023-05-25T01:16:29.573Z,12.45
2023-05-25T01:18:57.084Z,16.48
2023-05-25T01:21:42.359Z,17.17
2023-05-25T01:24:41.139Z,14.80
2023-05-25T01:27:19.863Z,23.33
2023-05-25T01:29:48.431Z,17.92
2023-05-25T01:32:18.430Z,21.05
2023-05-25T01:34:47.000Z,18.05
2023-05-25T01:37:14.335Z,20.98
2023-05-25T01:39:41.724Z,17.40
2023-05-25T01:42:09.713Z,13.57
2023-05-25T01:44:39.039Z,15.20
2023-05-25T01:47:20.923Z,16.95
2023-05-25T01:50:09.800Z,13.48
2023-05-25T01:52:41.937Z,20.05
2023-05-25T01:55:15.052Z,13.82
2023-05-25T01:57:45.874Z,14.57
2023-05-25T02:00:14.508Z,17.42
2023-05-25T02:02:45.474Z,16.13
2023-05-25T02:05:13.732Z,19.08
2023-05-25T02:07:41.118Z,21.80
2023-05-25T02:10:08.792Z,16.85
2023-05-25T02:12:36.140Z,15.48
2023-05-25T02:15:04.964Z,11.77
2023-05-25T02:17:32.482Z,15.57
2023-05-25T02:19:59.833Z,19.10
2023-05-25T02:22:27.295Z,17.15
2023-05-25T02:24:54.583Z,12.73
2023-05-25T02:27:22.971Z,21.75
2023-05-25T02:29:50.806Z,12.00
2023-05-25T02:32:18.012Z,14.32
2023-05-25T02:34:45.334Z,13.80
2023-05-25T02:37:12.654Z,14.95
2023-05-25T02:39:40.287Z,18.83
2023-05-25T02:42:07.892Z,16.38
2023-05-25T02:44:35.599Z,14.80
2023-05-25T02:47:03.031Z,12.60
2023-05-25T02:49:30.355Z,15.32
2023-05-25T02:51:57.630Z,12.02
2023-05-25T02:54:24.964Z,11.95
2023-05-25T02:56:52.482Z,17.30
2023-05-25T02:59:19.926Z,21.98
2023-05-25T03:01:47.218Z,13.75
2023-05-25T03:04:14.509Z,16.25
2023-05-25T03:06:45.340Z,10.88
2023-05-25T03:09:16.869Z,16.55
2023-05-25T03:11:46.382Z,20.08
2023-05-25T03:14:16.973Z,16.40
2023-05-25T03:16:53.619Z,11.35
2023-05-25T03:19:22.083Z,12.40
2023-05-25T03:21:49.383Z,14.20
2023-05-25T03:24:19.094Z,20.58
2023-05-25T03:26:46.441Z,17.33
2023-05-25T03:29:14.683Z,15.15
2023-05-25T03:31:41.971Z,15.40
2023-05-25T03:34:09.658Z,12.15
2023-05-25T03:36:39.118Z,15.50
2023-05-25T03:39:07.368Z,20.83
2023-05-25T03:41:34.942Z,13.48
2023-05-25T03:44:02.325Z,15.43
2023-05-25T03:46:29.841Z,12.90
2023-05-25T03:48:58.301Z,15.07
2023-05-25T03:51:25.537Z,18.00
2023-05-25T03:53:52.740Z,18.13
2023-05-25T03:56:20.032Z,15.20
2023-05-25T03:58:47.391Z,17.25
2023-05-25T04:01:14.887Z,19.30
2023-05-25T04:03:42.364Z,12.77
2023-05-25T04:06:09.746Z,13.60
2023-05-25T04:08:37.046Z,11.18
2023-05-25T04:11:05.277Z,14.85
2023-05-25T04:13:35.910Z,16.25
2023-05-25T04:16:03.667Z,10.68
2023-05-25T04:18:33.625Z,15.30
2023-05-25T04:21:01.390Z,10.18
2023-05-25T04:23:29.044Z,12.98
2023-05-25T04:25:56.580Z,14.15
2023-05-25T04:28:24.049Z,12.77
2023-05-25T04:30:57.404Z,17.08
2023-05-25T04:33:50.917Z,10.80
2023-05-25T04:36:25.970Z,9.52
2023-05-25T04:38:55.040Z,9.35
2023-05-25T04:41:25.930Z,16.30
2023-05-25T04:46:32.026Z,9.70
2023-05-25T04:48:59.584Z,11.52
2023-05-25T04:51:27.153Z,12.23
2023-05-25T04:53:54.579Z,18.58
2023-05-25T04:56:25.764Z,10.52
2023-05-25T04:58:53.772Z,5.78
2023-05-25T05:01:21.174Z,10.25
2023-05-25T05:03:49.172Z,8.52
2023-05-25T05:06:17.999Z,9.82
2023-05-25T05:08:45.604Z,11.40
2023-05-25T05:11:12.937Z,9.75
2023-05-25T05:13:40.470Z,6.22
2023-05-25T05:16:08.345Z,10.70
2023-05-25T05:18:35.833Z,7.15
2023-05-25T05:21:03.145Z,9.93
2023-05-25T05:23:30.531Z,6.18
2023-05-25T05:25:58.014Z,11.85
2023-05-25T05:28:27.511Z,10.35
2023-05-25T05:30:54.932Z,15.15
2023-05-25T05:33:26.435Z,8.82
2023-05-25T05:35:54.778Z,9.32
2023-05-25T05:38:23.282Z,8.82
2023-05-25T05:40:50.695Z,11.57
2023-05-25T05:43:23.083Z,11.80
2023-05-25T05:45:50.506Z,8.50
2023-05-25T05:48:17.782Z,5.32
2023-05-25T05:50:45.648Z,10.15
2023-05-25T05:53:14.609Z,7.75
2023-05-25T05:55:42.201Z,8.32
2023-05-25T05:58:09.602Z,8.35
2023-05-25T06:00:37.338Z,4.07
2023-05-25T06:03:06.105Z,9.38
2023-05-25T06:05:33.812Z,9.20
2023-05-25T06:08:01.421Z,8.77
2023-05-25T06:10:28.727Z,9.90
2023-05-25T06:12:56.508Z,6.55
2023-05-25T06:15:24.007Z,7.45
2023-05-25T06:17:54.919Z,16.77
2023-05-25T06:20:23.126Z,9.40
2023-05-25T06:22:50.530Z,11.15
2023-05-25T06:25:18.005Z,7.18
2023-05-25T06:27:45.818Z,9.32
2023-05-25T06:30:13.998Z,7.40
2023-05-25T06:32:43.486Z,7.35
2023-05-25T06:35:14.911Z,8.20
2023-05-25T06:37:42.857Z,11.80
2023-05-25T06:40:11.417Z,11.80
2023-05-25T06:42:38.699Z,9.63
2023-05-25T06:45:23.521Z,2.95
2023-05-25T06:47:50.766Z,7.22
2023-05-25T06:50:18.566Z,8.10
2023-05-25T06:52:46.928Z,5.63
2023-05-25T06:55:14.266Z,9.00
2023-05-25T06:57:41.917Z,10.63
2023-05-25T07:00:12.261Z,8.52
2023-05-25T07:02:39.973Z,10.35
2023-05-25T07:05:07.561Z,8.23
2023-05-25T07:07:35.058Z,6.18
2023-05-25T07:10:04.625Z,9.80
2023-05-25T07:12:32.017Z,8.20
2023-05-25T07:14:59.403Z,5.57
2023-05-25T07:17:26.870Z,5.32
2023-05-25T07:19:54.444Z,8.00
2023-05-25T07:22:23.749Z,7.43
2023-05-25T07:24:51.054Z,7.82
2023-05-25T07:27:19.755Z,12.60
2023-05-25T07:29:47.107Z,17.00
2023-05-25T07:32:14.423Z,9.20
2023-05-25T07:34:41.839Z,8.48
2023-05-25T07:37:09.184Z,5.88
2023-05-25T07:39:36.454Z,12.18
2023-05-25T07:42:03.893Z,5.25
2023-05-25T07:44:31.129Z,6.80
2023-05-25T07:46:58.513Z,5.50
2023-05-25T07:49:26.032Z,5.30
2023-05-25T07:51:53.421Z,6.30
2023-05-25T07:54:21.085Z,6.57
2023-05-25T07:56:48.473Z,15.07
2023-05-25T07:59:15.857Z,12.02
2023-05-25T08:01:43.327Z,13.90
2023-05-25T08:04:10.784Z,14.45
2023-05-25T08:06:38.688Z,10.50
2023-05-25T08:09:08.092Z,12.27
2023-05-25T08:11:35.601Z,12.93
2023-05-25T08:14:03.008Z,11.55
2023-05-25T08:16:30.328Z,11.45
2023-05-25T08:18:57.621Z,4.75
2023-05-25T08:21:24.885Z,15.80
2023-05-25T08:23:54.042Z,11.75
2023-05-25T08:28:53.493Z,8.20
2023-05-25T08:31:20.816Z,12.70
2023-05-25T08:33:48.136Z,6.10
2023-05-25T08:36:16.286Z,7.90
2023-05-25T08:38:43.625Z,5.15
2023-05-25T08:41:13.210Z,8.82
2023-05-25T08:43:42.144Z,3.50
2023-05-25T08:46:09.751Z,9.15
2023-05-25T08:48:42.245Z,7.85
2023-05-25T08:51:13.542Z,7.72
2023-05-25T08:53:43.569Z,7.88
2023-05-25T08:56:16.577Z,9.73
2023-05-25T08:58:53.015Z,5.88
2023-05-25T09:01:22.767Z,7.80
2023-05-25T09:03:51.634Z,7.70
2023-05-25T09:06:19.607Z,19.77
2023-05-25T09:08:46.994Z,9.90
2023-05-25T09:11:17.472Z,10.73
2023-05-25T09:13:50.044Z,12.15
2023-05-25T09:16:18.951Z,8.65
2023-05-25T09:18:46.339Z,6.70
2023-05-25T09:21:13.725Z,12.57
2023-05-25T09:23:42.311Z,8.93
2023-05-25T09:26:09.851Z,13.57
2023-05-25T09:28:46.919Z,9.23
2023-05-25T09:31:15.942Z,7.60
2023-05-25T09:33:44.019Z,15.65
2023-05-25T09:36:15.315Z,9.32
2023-05-25T09:38:42.904Z,7.65
2023-05-25T09:41:11.262Z,8.23
2023-05-25T09:43:44.636Z,7.47
2023-05-25T09:46:16.766Z,7.15
2023-05-25T09:48:45.770Z,10.13
2023-05-25T09:51:13.871Z,7.18
2023-05-25T09:53:41.357Z,8.30
2023-05-25T09:56:08.619Z,8.68
2023-05-25T09:58:37.381Z,11.73
2023-05-25T10:01:04.826Z,8.13
2023-05-25T10:03:32.177Z,3.78
2023-05-25T10:06:01.369Z,5.53
2023-05-25T10:08:29.876Z,10.00
2023-05-25T10:10:57.194Z,7.88
2023-05-25T10:13:27.349Z,5.65
2023-05-25T10:15:55.150Z,7.88
2023-05-25T10:18:32.369Z,11.10
2023-05-25T10:21:05.194Z,7.90
2023-05-25T10:23:44.660Z,12.27
2023-05-25T10:26:21.535Z,5.50
2023-05-25T10:28:51.786Z,17.17
2023-05-25T10:31:19.843Z,4.97
2023-05-25T10:33:50.616Z,6.50
2023-05-25T10:36:21.393Z,5.82
2023-05-25T10:38:52.134Z,4.00
2023-05-25T10:41:21.364Z,10.57
2023-05-25T10:43:49.429Z,7.72
2023-05-25T10:46:17.379Z,5.70
2023-05-25T10:48:50.265Z,7.07
2023-05-25T10:51:20.786Z,5.03
2023-05-25T10:53:59.710Z,7.75
2023-05-25T10:56:26.932Z,10.07
2023-05-25T10:58:54.340Z,7.22
2023-05-25T11:01:22.431Z,5.90
2023-05-25T11:04:11.496Z,4.15
2023-05-25T11:06:41.495Z,9.32
2023-05-25T11:09:27.838Z,6.32
2023-05-25T11:11:59.031Z,3.63
2023-05-25T11:14:34.254Z,12.45
2023-05-25T11:17:15.033Z,6.10
2023-05-25T11:19:43.792Z,4.25
2023-05-25T11:22:20.405Z,2.22
2023-05-25T11:24:52.754Z,10.32
2023-05-25T11:27:31.369Z,10.00
2023-05-25T11:30:00.153Z,5.78
2023-05-25T11:32:28.391Z,5.68
2023-05-25T11:34:58.520Z,9.55
2023-05-25T11:37:29.113Z,8.27
2023-05-25T11:39:56.543Z,9.55
2023-05-25T11:42:25.948Z,6.22
2023-05-25T11:44:53.759Z,5.63
2023-05-25T11:47:25.270Z,7.40
2023-05-25T11:49:56.502Z,10.35
2023-05-25T11:52:24.053Z,9.48
2023-05-25T11:54:53.346Z,8.48
2023-05-25T11:57:24.827Z,3.92
2023-05-25T12:00:02.032Z,5.75
2023-05-25T12:02:38.873Z,12.75
2023-05-25T12:05:08.704Z,8.05
2023-05-25T12:07:44.485Z,6.15
2023-05-25T12:10:13.901Z,11.40
2023-05-25T12:12:46.387Z,7.10
2023-05-25T12:15:22.272Z,7.35
2023-05-25T12:17:50.692Z,11.95
2023-05-25T12:20:18.998Z,15.05
2023-05-25T12:22:47.367Z,6.90
2023-05-25T12:25:18.861Z,9.32
2023-05-25T12:27:46.424Z,10.75
2023-05-25T12:30:13.796Z,11.10
2023-05-25T12:33:03.872Z,4.32
2023-05-25T12:35:47.745Z,6.60
2023-05-25T12:38:17.652Z,6.13
2023-05-25T12:40:45.599Z,7.20
2023-05-25T12:43:14.347Z,12.45
2023-05-25T12:45:42.997Z,10.77
2023-05-25T12:48:10.895Z,12.27
2023-05-25T12:50:38.630Z,11.32
2023-05-25T12:53:06.068Z,9.65
2023-05-25T12:55:36.143Z,6.18
2023-05-25T12:58:06.539Z,5.10
2023-05-25T13:00:38.895Z,16.00
2023-05-25T13:03:10.407Z,11.27
2023-05-25T13:05:38.354Z,8.18
2023-05-25T13:08:07.260Z,12.50
2023-05-25T13:10:37.426Z,10.20
2023-05-25T13:13:04.817Z,10.80
2023-05-25T13:15:32.267Z,12.90
2023-05-25T13:17:59.593Z,10.48
2023-05-25T13:20:27.848Z,5.57
2023-05-25T13:22:58.499Z,7.50
2023-05-25T13:25:27.592Z,7.57
2023-05-25T13:27:57.857Z,10.43
2023-05-25T13:30:26.450Z,6.88
2023-05-25T13:32:53.969Z,7.53
2023-05-25T13:35:43.811Z,10.00
2023-05-25T13:38:11.140Z,5.60
2023-05-25T13:40:38.389Z,5.70
2023-05-25T13:43:05.787Z,8.07
2023-05-25T13:45:33.063Z,7.47
2023-05-25T13:48:00.551Z,5.38
2023-05-25T13:50:27.999Z,6.55
2023-05-25T13:52:55.270Z,7.93
2023-05-25T13:55:23.334Z,11.13
2023-05-25T13:57:52.310Z,7.55
2023-05-25T14:00:19.856Z,5.85
2023-05-25T14:02:47.232Z,10.68
2023-05-25T14:05:14.631Z,8.55
2023-05-25T14:07:42.051Z,8.00
2023-05-25T14:10:10.045Z,5.65
2023-05-25T14:12:37.545Z,4.35
2023-05-25T14:15:05.997Z,9.68
2023-05-25T14:17:33.694Z,5.50
2023-05-25T14:20:04.257Z,8.38
2023-05-25T14:22:32.263Z,4.82
2023-05-25T14:24:59.709Z,8.57
2023-05-25T14:27:27.214Z,9.90
2023-05-25T14:29:54.559Z,12.02
2023-05-25T14:32:21.945Z,9.40
2023-05-25T14:34:49.254Z,5.97
2023-05-25T14:37:16.526Z,8.90
2023-05-25T14:39:43.815Z,6.50
2023-05-25T14:42:11.061Z,9.02
2023-05-25T14:44:38.294Z,14.63
2023-05-25T14:47:05.929Z,7.80
2023-05-25T14:49:33.276Z,10.50
2023-05-25T14:52:00.565Z,7.78
2023-05-25T14:54:27.784Z,11.60
2023-05-25T14:56:54.985Z,8.27
2023-05-25T14:59:22.338Z,7.15
2023-05-25T15:01:49.562Z,14.18
2023-05-25T15:04:16.875Z,12.45
2023-05-25T15:06:44.369Z,10.68
2023-05-25T15:09:13.354Z,5.28
2023-05-25T15:11:40.651Z,7.88
2023-05-25T15:14:07.997Z,12.63
2023-05-25T15:16:35.525Z,8.32
2023-05-25T15:19:02.948Z,5.78
2023-05-25T15:21:30.279Z,5.93
2023-05-25T15:23:57.534Z,6.18
2023-05-25T15:26:25.595Z,13.63
2023-05-25T15:28:52.841Z,6.05
2023-05-25T15:31:20.230Z,6.72
2023-05-25T15:33:56.242Z,7.18
2023-05-25T15:36:25.656Z,11.00
2023-05-25T15:38:52.951Z,9.00
2023-05-25T15:41:20.240Z,5.85
2023-05-25T15:43:58.528Z,7.40
2023-05-25T15:46:26.469Z,10.88
2023-05-25T15:48:54.492Z,9.77
2023-05-25T15:51:22.007Z,6.10
2023-05-25T15:53:49.324Z,8.45
2023-05-25T15:56:16.539Z,10.77
2023-05-25T15:58:47.230Z,8.55
2023-05-25T16:01:14.619Z,9.90
2023-05-25T16:03:43.244Z,8.18
2023-05-25T16:06:11.256Z,9.10
2023-05-25T16:08:38.556Z,8.00
2023-05-25T16:11:05.992Z,11.95
2023-05-25T16:13:33.333Z,8.27
2023-05-25T16:16:00.691Z,7.00
2023-05-25T16:18:28.188Z,5.53
2023-05-25T16:20:58.207Z,12.48
2023-05-25T16:23:25.675Z,9.98
2023-05-25T16:25:53.133Z,6.57
2023-05-25T16:28:20.474Z,9.27
2023-05-25T16:30:47.834Z,6.32
2023-05-25T16:33:15.257Z,7.45
2023-05-25T16:35:42.873Z,4.18
2023-05-25T16:38:10.788Z,3.70
2023-05-25T16:40:38.081Z,5.85
2023-05-25T16:43:05.498Z,6.55
2023-05-25T16:45:32.782Z,7.25
2023-05-25T16:48:00.287Z,4.15
2023-05-25T16:50:27.683Z,7.97
2023-05-25T16:52:55.232Z,6.95
2023-05-25T16:55:22.619Z,9.82
2023-05-25T16:57:49.958Z,7.43
2023-05-25T17:00:17.573Z,9.35
2023-05-25T17:02:45.027Z,6.65
2023-05-25T17:05:12.334Z,7.05
2023-05-25T17:07:40.351Z,5.35
2023-05-25T17:10:08.784Z,5.82
2023-05-25T17:12:36.486Z,3.88
2023-05-25T17:15:04.359Z,4.97
2023-05-25T17:17:32.838Z,6.20
2023-05-25T17:20:00.470Z,10.32
2023-05-25T17:22:27.816Z,7.25
2023-05-25T17:24:55.155Z,6.55
2023-05-25T17:27:22.461Z,8.00
2023-05-25T17:29:49.776Z,4.20
2023-05-25T17:32:17.266Z,7.75
2023-05-25T17:34:44.595Z,4.07
2023-05-25T17:37:11.941Z,2.65
2023-05-25T17:39:39.446Z,5.30
2023-05-25T17:42:06.915Z,5.82
2023-05-25T17:44:34.294Z,6.05
2023-05-25T17:47:01.623Z,4.80
2023-05-25T17:49:28.875Z,6.05
2023-05-25T17:51:56.618Z,11.02
2023-05-25T17:54:26.041Z,6.25
2023-05-25T17:56:53.973Z,6.88
2023-05-25T17:59:21.289Z,4.05
2023-05-25T18:01:48.750Z,10.52
2023-05-25T18:04:16.144Z,6.70
2023-05-25T18:06:43.641Z,3.50
2023-05-25T18:09:10.888Z,6.95
2023-05-25T18:11:38.136Z,2.15
2023-05-25T18:14:05.506Z,9.63
2023-05-25T18:16:32.942Z,7.85
2023-05-25T18:19:00.283Z,6.47
2023-05-25T18:21:27.546Z,3.60
2023-05-25T18:23:54.790Z,3.83
2023-05-25T18:26:22.072Z,6.80
2023-05-25T18:28:50.074Z,4.18
2023-05-25T18:31:17.444Z,8.00
2023-05-25T18:33:44.718Z,4.13
2023-05-25T18:36:12.030Z,5.30
2023-05-25T18:38:39.313Z,6.68
2023-05-25T18:41:06.583Z,4.90
2023-05-25T18:43:33.903Z,3.97
2023-05-25T18:46:01.274Z,3.55
2023-05-25T18:48:28.737Z,6.13
2023-05-25T18:50:56.025Z,2.88
2023-05-25T18:53:23.296Z,3.00
2023-05-25T18:55:51.152Z,5.07
2023-05-25T18:58:18.448Z,6.05
2023-05-25T19:00:45.803Z,3.80
2023-05-25T19:03:13.182Z,5.25
2023-05-25T19:05:40.673Z,7.75
2023-05-25T19:08:08.025Z,7.47
2023-05-25T19:10:35.356Z,3.17
2023-05-25T19:13:02.651Z,6.07
2023-05-25T19:15:29.924Z,7.30
2023-05-25T19:17:57.164Z,7.65
2023-05-25T19:20:24.604Z,5.10
2023-05-25T19:22:51.956Z,4.13
2023-05-25T19:25:19.324Z,5.57
2023-05-25T19:27:47.443Z,5.40
2023-05-25T19:30:14.893Z,3.58
2023-05-25T19:32:42.437Z,5.35
2023-05-25T19:35:09.912Z,5.47
2023-05-25T19:37:38.409Z,6.95
2023-05-25T19:40:08.972Z,2.80
2023-05-25T19:42:36.265Z,7.15
2023-05-25T19:45:03.989Z,4.13
2023-05-25T19:47:32.320Z,5.40
2023-05-25T19:50:00.652Z,4.60
2023-05-25T19:52:28.055Z,8.90
2023-05-25T19:54:55.486Z,6.38
2023-05-25T19:57:22.769Z,3.00
2023-05-25T19:59:51.207Z,3.22
2023-05-25T20:02:18.568Z,6.00
2023-05-25T20:04:46.122Z,4.70
2023-05-25T20:07:13.595Z,4.32
2023-05-25T20:09:41.595Z,6.28
2023-05-25T20:12:09.381Z,7.70
2023-05-25T20:14:36.813Z,6.72
2023-05-25T20:17:04.322Z,10.73
2023-05-25T20:19:31.874Z,5.60
2023-05-25T20:22:00.343Z,4.88
2023-05-25T20:24:28.030Z,5.20
2023-05-25T20:26:56.990Z,5.65
2023-05-25T20:29:27.616Z,9.07
2023-05-25T20:31:55.251Z,8.60
2023-05-25T20:34:22.612Z,8.88
2023-05-25T20:36:49.968Z,11.13
2023-05-25T20:39:17.244Z,10.73
2023-05-25T20:41:44.604Z,6.20
2023-05-25T20:44:12.000Z,9.70
2023-05-25T20:46:39.730Z,10.52
2023-05-25T20:49:07.086Z,7.47
2023-05-25T20:51:34.458Z,10.02
2023-05-25T20:54:01.776Z,4.97
2023-05-25T20:56:29.302Z,15.55
2023-05-25T20:58:57.637Z,5.63
2023-05-25T21:01:25.088Z,6.90
2023-05-25T21:03:52.439Z,8.63
2023-05-25T21:06:19.889Z,8.48
2023-05-25T21:08:47.306Z,6.40
2023-05-25T21:11:14.642Z,9.50
2023-05-25T21:13:42.046Z,9.30
2023-05-25T21:16:09.434Z,13.05
2023-05-25T21:18:36.721Z,8.75
2023-05-25T21:21:05.623Z,9.00
2023-05-25T21:23:32.891Z,6.35
2023-05-25T21:26:00.220Z,12.73
2023-05-25T21:28:27.565Z,12.82
2023-05-25T21:30:55.047Z,9.32
2023-05-25T21:33:22.391Z,9.73
2023-05-25T21:35:49.727Z,8.55
2023-05-25T21:38:17.012Z,7.63
2023-05-25T21:40:44.369Z,10.60
2023-05-25T21:43:11.769Z,11.40
2023-05-25T21:45:39.025Z,14.07
2023-05-25T21:48:06.332Z,10.73
2023-05-25T21:50:35.961Z,12.93
2023-05-25T21:53:03.330Z,14.23
2023-05-25T21:55:30.692Z,13.02
2023-05-25T21:57:57.938Z,13.50
2023-05-25T22:00:25.185Z,11.52
2023-05-25T22:02:52.605Z,8.10
2023-05-25T22:05:20.143Z,16.35
2023-05-25T22:07:47.461Z,12.30
2023-05-25T22:10:14.896Z,10.15
2023-05-25T22:12:42.289Z,10.95
2023-05-25T22:15:10.069Z,8.90
2023-05-25T22:17:37.486Z,14.07
2023-05-25T22:20:08.224Z,13.70
2023-05-25T22:22:37.519Z,11.55
2023-05-25T22:25:05.563Z,10.27
2023-05-25T22:27:33.210Z,19.15
2023-05-25T22:30:00.630Z,13.00
2023-05-25T22:32:28.106Z,15.02
2023-05-25T22:34:55.580Z,25.45
2023-05-25T22:37:22.851Z,10.18
2023-05-25T22:39:50.764Z,12.38
2023-05-25T22:42:18.148Z,15.85
2023-05-25T22:44:45.430Z,14.43
2023-05-25T22:47:13.284Z,18.23
2023-05-25T22:49:42.843Z,17.00
2023-05-25T22:52:12.385Z,18.42
2023-05-25T22:54:39.994Z,19.30
2023-05-25T22:57:09.798Z,17.35
2023-05-25T22:59:37.217Z,20.52
2023-05-25T23:02:05.063Z,20.77
2023-05-25T23:04:33.980Z,14.52
2023-05-25T23:07:01.299Z,20.75
2023-05-25T23:09:28.536Z,20.67
2023-05-25T23:11:55.808Z,18.77
2023-05-25T23:14:23.175Z,25.90
2023-05-25T23:16:50.648Z,15.88
2023-05-25T23:19:18.246Z,20.08
2023-05-25T23:21:45.640Z,14.65
2023-05-25T23:24:13.021Z,28.38
2023-05-25T23:26:40.533Z,26.40
2023-05-25T23:29:07.903Z,23.33
2023-05-25T23:31:35.260Z,26.85
2023-05-25T23:34:02.570Z,16.80
2023-05-25T23:36:29.923Z,18.50
2023-05-25T23:38:57.351Z,13.27
2023-05-25T23:41:25.424Z,13.48
2023-05-25T23:43:52.945Z,16.52
2023-05-25T23:46:20.364Z,17.45
2023-05-25T23:48:47.770Z,21.10
2023-05-25T23:51:15.124Z,28.73
2023-05-25T23:53:42.661Z,21.88
2023-05-25T23:56:10.010Z,31.85
2023-05-25T23:58:37.420Z,17.02
